sensor_id;sensor_type;location;lat;lon;timestamp;P1;durP1;ratioP1;P2;durP2;ratioP2
48871;SDS011;36154;51.674;7.824;2024-03-08T00:00:02;1.80;;;1.70;;
48871;SDS011;36154;51.674;7.824;2024-03-08T00:02:39;2.40;;;2.30;;
48871;SDS011;36154;51.674;7.824;2024-03-08T00:05:05;2.40;;;2.30;;
48871;SDS011;36154;51.674;7.824;2024-03-08T00:07:33;2.35;;;2.25;;
48871;SDS011;36154;51.674;7.824;2024-03-08T00:09:59;1.77;;;1.67;;
48871;SDS011;36154;51.674;7.824;2024-03-08T00:12:24;2.20;;;2.10;;
48871;SDS011;36154;51.674;7.824;2024-03-08T00:14:51;1.92;;;1.83;;
48871;SDS011;36154;51.674;7.824;2024-03-08T00:17:17;2.20;;;2.10;;
48871;SDS011;36154;51.674;7.824;2024-03-08T00:19:42;1.98;;;1.88;;
48871;SDS011;36154;51.674;7.824;2024-03-08T00:22:08;2.20;;;2.10;;
48871;SDS011;36154;51.674;7.824;2024-03-08T00:24:33;1.90;;;1.80;;
48871;SDS011;36154;51.674;7.824;2024-03-08T00:26:58;1.83;;;1.73;;
48871;SDS011;36154;51.674;7.824;2024-03-08T00:29:24;2.00;;;1.90;;
48871;SDS011;36154;51.674;7.824;2024-03-08T00:31:49;2.30;;;2.20;;
48871;SDS011;36154;51.674;7.824;2024-03-08T00:34:15;2.13;;;2.03;;
48871;SDS011;36154;51.674;7.824;2024-03-08T00:36:40;1.98;;;1.88;;
48871;SDS011;36154;51.674;7.824;2024-03-08T00:39:06;1.83;;;1.73;;
48871;SDS011;36154;51.674;7.824;2024-03-08T00:41:31;2.08;;;1.98;;
48871;SDS011;36154;51.674;7.824;2024-03-08T00:43:57;1.50;;;1.50;;
48871;SDS011;36154;51.674;7.824;2024-03-08T00:46:22;1.77;;;1.67;;
48871;SDS011;36154;51.674;7.824;2024-03-08T00:48:48;2.08;;;1.98;;
48871;SDS011;36154;51.674;7.824;2024-03-08T00:51:13;1.95;;;1.85;;
48871;SDS011;36154;51.674;7.824;2024-03-08T00:53:40;1.77;;;1.67;;
48871;SDS011;36154;51.674;7.824;2024-03-08T00:56:06;2.10;;;2.00;;
48871;SDS011;36154;51.674;7.824;2024-03-08T00:58:35;1.80;;;1.70;;
48871;SDS011;36154;51.674;7.824;2024-03-08T01:01:01;1.80;;;1.70;;
48871;SDS011;36154;51.674;7.824;2024-03-08T01:03:26;2.00;;;1.90;;
48871;SDS011;36154;51.674;7.824;2024-03-08T01:05:51;1.60;;;1.58;;
48871;SDS011;36154;51.674;7.824;2024-03-08T01:08:17;1.90;;;1.80;;
48871;SDS011;36154;51.674;7.824;2024-03-08T01:10:42;2.05;;;1.95;;
48871;SDS011;36154;51.674;7.824;2024-03-08T01:13:07;1.88;;;1.77;;
48871;SDS011;36154;51.674;7.824;2024-03-08T01:15:34;1.90;;;1.80;;
48871;SDS011;36154;51.674;7.824;2024-03-08T01:17:59;1.70;;;1.60;;
48871;SDS011;36154;51.674;7.824;2024-03-08T01:20:25;1.55;;;1.50;;
48871;SDS011;36154;51.674;7.824;2024-03-08T01:22:51;1.80;;;1.70;;
48871;SDS011;36154;51.674;7.824;2024-03-08T01:25:17;1.48;;;1.38;;
48871;SDS011;36154;51.674;7.824;2024-03-08T01:27:42;1.80;;;1.70;;
48871;SDS011;36154;51.674;7.824;2024-03-08T01:30:07;1.83;;;1.73;;
48871;SDS011;36154;51.674;7.824;2024-03-08T01:32:34;1.67;;;1.58;;
48871;SDS011;36154;51.674;7.824;2024-03-08T01:34:59;1.30;;;1.30;;
48871;SDS011;36154;51.674;7.824;2024-03-08T01:37:25;1.73;;;1.63;;
48871;SDS011;36154;51.674;7.824;2024-03-08T01:39:50;1.52;;;1.52;;
48871;SDS011;36154;51.674;7.824;2024-03-08T01:42:15;1.90;;;1.80;;
48871;SDS011;36154;51.674;7.824;2024-03-08T01:44:42;1.50;;;1.50;;
48871;SDS011;36154;51.674;7.824;2024-03-08T01:47:08;1.55;;;1.45;;
48871;SDS011;36154;51.674;7.824;2024-03-08T01:49:36;1.52;;;1.50;;
48871;SDS011;36154;51.674;7.824;2024-03-08T01:52:02;2.00;;;1.90;;
48871;SDS011;36154;51.674;7.824;2024-03-08T01:54:27;1.60;;;1.60;;
48871;SDS011;36154;51.674;7.824;2024-03-08T01:56:54;1.50;;;1.50;;
48871;SDS011;36154;51.674;7.824;2024-03-08T01:59:19;1.55;;;1.55;;
48871;SDS011;36154;51.674;7.824;2024-03-08T02:01:44;1.38;;;1.38;;
48871;SDS011;36154;51.674;7.824;2024-03-08T02:04:10;1.85;;;1.75;;
48871;SDS011;36154;51.674;7.824;2024-03-08T02:06:36;1.40;;;1.40;;
48871;SDS011;36154;51.674;7.824;2024-03-08T02:09:03;1.50;;;1.50;;
48871;SDS011;36154;51.674;7.824;2024-03-08T02:11:30;1.35;;;1.35;;
48871;SDS011;36154;51.674;7.824;2024-03-08T02:13:57;1.20;;;1.20;;
48871;SDS011;36154;51.674;7.824;2024-03-08T02:16:23;1.85;;;1.75;;
48871;SDS011;36154;51.674;7.824;2024-03-08T02:18:48;1.38;;;1.38;;
48871;SDS011;36154;51.674;7.824;2024-03-08T02:21:14;1.60;;;1.50;;
48871;SDS011;36154;51.674;7.824;2024-03-08T02:23:45;1.45;;;1.40;;
48871;SDS011;36154;51.674;7.824;2024-03-08T02:26:11;1.27;;;1.27;;
48871;SDS011;36154;51.674;7.824;2024-03-08T02:28:36;1.35;;;1.25;;
48871;SDS011;36154;51.674;7.824;2024-03-08T02:31:02;1.50;;;1.50;;
48871;SDS011;36154;51.674;7.824;2024-03-08T02:33:28;1.23;;;1.23;;
48871;SDS011;36154;51.674;7.824;2024-03-08T02:35:53;1.38;;;1.38;;
48871;SDS011;36154;51.674;7.824;2024-03-08T02:38:19;1.45;;;1.45;;
48871;SDS011;36154;51.674;7.824;2024-03-08T02:40:46;1.65;;;1.55;;
48871;SDS011;36154;51.674;7.824;2024-03-08T02:43:13;1.60;;;1.50;;
48871;SDS011;36154;51.674;7.824;2024-03-08T02:45:40;1.48;;;1.48;;
48871;SDS011;36154;51.674;7.824;2024-03-08T02:48:12;1.70;;;1.60;;
48871;SDS011;36154;51.674;7.824;2024-03-08T02:50:38;1.40;;;1.40;;
48871;SDS011;36154;51.674;7.824;2024-03-08T02:53:07;1.25;;;1.25;;
48871;SDS011;36154;51.674;7.824;2024-03-08T02:55:33;1.30;;;1.30;;
48871;SDS011;36154;51.674;7.824;2024-03-08T02:58:00;1.45;;;1.45;;
48871;SDS011;36154;51.674;7.824;2024-03-08T03:00:28;1.38;;;1.38;;
48871;SDS011;36154;51.674;7.824;2024-03-08T03:02:55;1.35;;;1.25;;
48871;SDS011;36154;51.674;7.824;2024-03-08T03:05:21;1.30;;;1.30;;
48871;SDS011;36154;51.674;7.824;2024-03-08T03:07:47;1.25;;;1.25;;
48871;SDS011;36154;51.674;7.824;2024-03-08T03:10:13;1.10;;;1.10;;
48871;SDS011;36154;51.674;7.824;2024-03-08T03:12:41;1.00;;;1.00;;
48871;SDS011;36154;51.674;7.824;2024-03-08T03:15:07;1.52;;;1.52;;
48871;SDS011;36154;51.674;7.824;2024-03-08T03:17:33;1.73;;;1.63;;
48871;SDS011;36154;51.674;7.824;2024-03-08T03:19:58;1.15;;;1.15;;
48871;SDS011;36154;51.674;7.824;2024-03-08T03:22:23;1.45;;;1.38;;
48871;SDS011;36154;51.674;7.824;2024-03-08T03:24:50;1.33;;;1.33;;
48871;SDS011;36154;51.674;7.824;2024-03-08T03:27:16;1.20;;;1.20;;
48871;SDS011;36154;51.674;7.824;2024-03-08T03:29:43;1.23;;;1.23;;
48871;SDS011;36154;51.674;7.824;2024-03-08T03:32:12;1.10;;;1.10;;
48871;SDS011;36154;51.674;7.824;2024-03-08T03:34:38;1.50;;;1.50;;
48871;SDS011;36154;51.674;7.824;2024-03-08T03:37:04;1.10;;;1.10;;
48871;SDS011;36154;51.674;7.824;2024-03-08T03:39:30;1.00;;;1.00;;
48871;SDS011;36154;51.674;7.824;2024-03-08T03:41:59;1.40;;;1.38;;
48871;SDS011;36154;51.674;7.824;2024-03-08T03:44:27;1.30;;;1.30;;
48871;SDS011;36154;51.674;7.824;2024-03-08T03:46:52;1.67;;;1.60;;
48871;SDS011;36154;51.674;7.824;2024-03-08T03:49:18;1.38;;;1.38;;
48871;SDS011;36154;51.674;7.824;2024-03-08T03:51:43;1.33;;;1.33;;
48871;SDS011;36154;51.674;7.824;2024-03-08T03:54:09;1.30;;;1.20;;
48871;SDS011;36154;51.674;7.824;2024-03-08T03:56:34;1.20;;;1.20;;
48871;SDS011;36154;51.674;7.824;2024-03-08T03:59:01;1.30;;;1.20;;
48871;SDS011;36154;51.674;7.824;2024-03-08T04:01:26;1.20;;;1.20;;
48871;SDS011;36154;51.674;7.824;2024-03-08T04:03:52;1.40;;;1.40;;
48871;SDS011;36154;51.674;7.824;2024-03-08T04:06:17;1.40;;;1.40;;
48871;SDS011;36154;51.674;7.824;2024-03-08T04:08:42;1.38;;;1.30;;
48871;SDS011;36154;51.674;7.824;2024-03-08T04:11:07;1.35;;;1.25;;
48871;SDS011;36154;51.674;7.824;2024-03-08T04:13:35;1.50;;;1.40;;
48871;SDS011;36154;51.674;7.824;2024-03-08T04:16:01;1.10;;;1.10;;
48871;SDS011;36154;51.674;7.824;2024-03-08T04:18:27;1.30;;;1.20;;
48871;SDS011;36154;51.674;7.824;2024-03-08T04:20:53;1.30;;;1.30;;
48871;SDS011;36154;51.674;7.824;2024-03-08T04:23:18;1.48;;;1.48;;
48871;SDS011;36154;51.674;7.824;2024-03-08T04:25:44;1.15;;;1.15;;
48871;SDS011;36154;51.674;7.824;2024-03-08T04:28:09;1.00;;;1.00;;
48871;SDS011;36154;51.674;7.824;2024-03-08T04:30:40;1.23;;;1.23;;
48871;SDS011;36154;51.674;7.824;2024-03-08T04:33:05;1.35;;;1.35;;
48871;SDS011;36154;51.674;7.824;2024-03-08T04:35:32;1.13;;;1.13;;
48871;SDS011;36154;51.674;7.824;2024-03-08T04:37:57;1.20;;;1.20;;
48871;SDS011;36154;51.674;7.824;2024-03-08T04:40:22;1.58;;;1.48;;
48871;SDS011;36154;51.674;7.824;2024-03-08T04:42:48;0.90;;;0.90;;
48871;SDS011;36154;51.674;7.824;2024-03-08T04:45:15;1.40;;;1.40;;
48871;SDS011;36154;51.674;7.824;2024-03-08T04:47:41;1.33;;;1.33;;
48871;SDS011;36154;51.674;7.824;2024-03-08T04:50:07;2.00;;;1.50;;
48871;SDS011;36154;51.674;7.824;2024-03-08T04:52:33;1.20;;;1.20;;
48871;SDS011;36154;51.674;7.824;2024-03-08T04:54:59;1.42;;;1.42;;
48871;SDS011;36154;51.674;7.824;2024-03-08T04:57:24;1.23;;;1.23;;
48871;SDS011;36154;51.674;7.824;2024-03-08T04:59:50;1.38;;;1.38;;
48871;SDS011;36154;51.674;7.824;2024-03-08T05:02:16;1.80;;;1.70;;
48871;SDS011;36154;51.674;7.824;2024-03-08T05:04:42;1.42;;;1.42;;
48871;SDS011;36154;51.674;7.824;2024-03-08T05:07:07;1.20;;;1.20;;
48871;SDS011;36154;51.674;7.824;2024-03-08T05:09:32;1.05;;;1.05;;
48871;SDS011;36154;51.674;7.824;2024-03-08T05:11:58;1.20;;;1.20;;
48871;SDS011;36154;51.674;7.824;2024-03-08T05:14:24;1.80;;;1.70;;
48871;SDS011;36154;51.674;7.824;2024-03-08T05:16:50;1.10;;;1.10;;
48871;SDS011;36154;51.674;7.824;2024-03-08T05:19:16;1.35;;;1.35;;
48871;SDS011;36154;51.674;7.824;2024-03-08T05:21:45;1.50;;;1.50;;
48871;SDS011;36154;51.674;7.824;2024-03-08T05:24:12;1.85;;;1.75;;
48871;SDS011;36154;51.674;7.824;2024-03-08T05:26:38;2.97;;;1.60;;
48871;SDS011;36154;51.674;7.824;2024-03-08T05:29:04;2.33;;;2.10;;
48871;SDS011;36154;51.674;7.824;2024-03-08T05:31:30;3.80;;;3.17;;
48871;SDS011;36154;51.674;7.824;2024-03-08T05:34:11;2.92;;;2.83;;
48871;SDS011;36154;51.674;7.824;2024-03-08T05:36:39;1.35;;;1.30;;
48871;SDS011;36154;51.674;7.824;2024-03-08T05:39:05;1.40;;;1.40;;
48871;SDS011;36154;51.674;7.824;2024-03-08T05:41:32;1.33;;;1.30;;
48871;SDS011;36154;51.674;7.824;2024-03-08T05:43:57;1.75;;;1.65;;
48871;SDS011;36154;51.674;7.824;2024-03-08T05:46:22;1.40;;;1.40;;
48871;SDS011;36154;51.674;7.824;2024-03-08T05:48:48;1.40;;;1.30;;
48871;SDS011;36154;51.674;7.824;2024-03-08T05:51:13;1.40;;;1.40;;
48871;SDS011;36154;51.674;7.824;2024-03-08T05:53:38;1.58;;;1.48;;
48871;SDS011;36154;51.674;7.824;2024-03-08T05:56:03;1.60;;;1.50;;
48871;SDS011;36154;51.674;7.824;2024-03-08T05:58:29;1.63;;;1.60;;
48871;SDS011;36154;51.674;7.824;2024-03-08T06:00:55;1.98;;;1.88;;
48871;SDS011;36154;51.674;7.824;2024-03-08T06:03:20;2.00;;;1.90;;
48871;SDS011;36154;51.674;7.824;2024-03-08T06:05:46;2.03;;;1.58;;
48871;SDS011;36154;51.674;7.824;2024-03-08T06:08:12;3.33;;;3.10;;
48871;SDS011;36154;51.674;7.824;2024-03-08T06:10:39;1.90;;;1.80;;
48871;SDS011;36154;51.674;7.824;2024-03-08T06:13:05;1.85;;;1.77;;
48871;SDS011;36154;51.674;7.824;2024-03-08T06:15:30;2.50;;;2.40;;
48871;SDS011;36154;51.674;7.824;2024-03-08T06:17:55;2.25;;;2.15;;
48871;SDS011;36154;51.674;7.824;2024-03-08T06:20:20;1.95;;;1.85;;
48871;SDS011;36154;51.674;7.824;2024-03-08T06:22:51;1.80;;;1.70;;
48871;SDS011;36154;51.674;7.824;2024-03-08T06:25:16;2.95;;;1.70;;
48871;SDS011;36154;51.674;7.824;2024-03-08T06:27:42;2.00;;;1.80;;
48871;SDS011;36154;51.674;7.824;2024-03-08T06:30:08;2.75;;;1.95;;
48871;SDS011;36154;51.674;7.824;2024-03-08T06:32:37;1.70;;;1.60;;
48871;SDS011;36154;51.674;7.824;2024-03-08T06:35:03;2.75;;;1.77;;
48871;SDS011;36154;51.674;7.824;2024-03-08T06:37:31;3.22;;;1.55;;
48871;SDS011;36154;51.674;7.824;2024-03-08T06:39:56;1.95;;;1.85;;
48871;SDS011;36154;51.674;7.824;2024-03-08T06:42:22;1.85;;;1.75;;
48871;SDS011;36154;51.674;7.824;2024-03-08T06:44:47;1.80;;;1.70;;
48871;SDS011;36154;51.674;7.824;2024-03-08T06:47:15;1.77;;;1.67;;
48871;SDS011;36154;51.674;7.824;2024-03-08T06:49:42;1.98;;;1.88;;
48871;SDS011;36154;51.674;7.824;2024-03-08T06:52:08;2.03;;;1.92;;
48871;SDS011;36154;51.674;7.824;2024-03-08T06:54:34;1.88;;;1.77;;
48871;SDS011;36154;51.674;7.824;2024-03-08T06:57:01;1.70;;;1.60;;
48871;SDS011;36154;51.674;7.824;2024-03-08T06:59:28;1.40;;;1.40;;
48871;SDS011;36154;51.674;7.824;2024-03-08T07:01:54;1.80;;;1.70;;
48871;SDS011;36154;51.674;7.824;2024-03-08T07:04:19;1.77;;;1.67;;
48871;SDS011;36154;51.674;7.824;2024-03-08T07:06:46;1.90;;;1.80;;
48871;SDS011;36154;51.674;7.824;2024-03-08T07:09:15;2.65;;;1.90;;
48871;SDS011;36154;51.674;7.824;2024-03-08T07:11:41;1.73;;;1.63;;
48871;SDS011;36154;51.674;7.824;2024-03-08T07:14:07;1.98;;;1.88;;
48871;SDS011;36154;51.674;7.824;2024-03-08T07:16:32;1.70;;;1.60;;
48871;SDS011;36154;51.674;7.824;2024-03-08T07:18:58;1.60;;;1.50;;
48871;SDS011;36154;51.674;7.824;2024-03-08T07:21:23;1.90;;;1.80;;
48871;SDS011;36154;51.674;7.824;2024-03-08T07:23:49;1.90;;;1.80;;
48871;SDS011;36154;51.674;7.824;2024-03-08T07:26:31;1.77;;;1.67;;
48871;SDS011;36154;51.674;7.824;2024-03-08T07:28:57;1.80;;;1.70;;
48871;SDS011;36154;51.674;7.824;2024-03-08T07:31:23;1.55;;;1.45;;
48871;SDS011;36154;51.674;7.824;2024-03-08T07:34:03;1.83;;;1.73;;
48871;SDS011;36154;51.674;7.824;2024-03-08T07:36:28;1.50;;;1.40;;
48871;SDS011;36154;51.674;7.824;2024-03-08T07:38:54;1.80;;;1.70;;
48871;SDS011;36154;51.674;7.824;2024-03-08T07:41:19;1.55;;;1.45;;
48871;SDS011;36154;51.674;7.824;2024-03-08T07:43:45;1.30;;;1.30;;
48871;SDS011;36154;51.674;7.824;2024-03-08T07:46:10;1.58;;;1.50;;
48871;SDS011;36154;51.674;7.824;2024-03-08T07:48:36;1.40;;;1.30;;
48871;SDS011;36154;51.674;7.824;2024-03-08T07:51:01;1.30;;;1.30;;
48871;SDS011;36154;51.674;7.824;2024-03-08T07:53:27;1.33;;;1.20;;
48871;SDS011;36154;51.674;7.824;2024-03-08T07:55:53;1.30;;;1.30;;
48871;SDS011;36154;51.674;7.824;2024-03-08T07:58:18;1.10;;;1.10;;
48871;SDS011;36154;51.674;7.824;2024-03-08T08:00:43;1.50;;;1.50;;
48871;SDS011;36154;51.674;7.824;2024-03-08T08:03:09;1.25;;;1.25;;
48871;SDS011;36154;51.674;7.824;2024-03-08T08:05:34;1.23;;;1.23;;
48871;SDS011;36154;51.674;7.824;2024-03-08T08:08:03;1.15;;;1.15;;
48871;SDS011;36154;51.674;7.824;2024-03-08T08:10:31;1.77;;;1.67;;
48871;SDS011;36154;51.674;7.824;2024-03-08T08:12:57;1.50;;;1.50;;
48871;SDS011;36154;51.674;7.824;2024-03-08T08:15:23;1.70;;;1.60;;
48871;SDS011;36154;51.674;7.824;2024-03-08T08:17:48;1.63;;;1.63;;
48871;SDS011;36154;51.674;7.824;2024-03-08T08:20:13;1.40;;;1.40;;
48871;SDS011;36154;51.674;7.824;2024-03-08T08:22:39;1.80;;;1.70;;
48871;SDS011;36154;51.674;7.824;2024-03-08T08:25:10;1.75;;;1.65;;
48871;SDS011;36154;51.674;7.824;2024-03-08T08:27:38;2.35;;;1.73;;
48871;SDS011;36154;51.674;7.824;2024-03-08T08:30:10;1.80;;;1.70;;
48871;SDS011;36154;51.674;7.824;2024-03-08T08:32:36;2.00;;;1.90;;
48871;SDS011;36154;51.674;7.824;2024-03-08T08:35:02;1.77;;;1.67;;
48871;SDS011;36154;51.674;7.824;2024-03-08T08:37:29;1.40;;;1.40;;
48871;SDS011;36154;51.674;7.824;2024-03-08T08:39:54;1.33;;;1.33;;
48871;SDS011;36154;51.674;7.824;2024-03-08T08:42:20;1.60;;;1.60;;
48871;SDS011;36154;51.674;7.824;2024-03-08T08:44:45;1.70;;;1.60;;
48871;SDS011;36154;51.674;7.824;2024-03-08T08:47:11;1.83;;;1.73;;
48871;SDS011;36154;51.674;7.824;2024-03-08T08:49:38;1.83;;;1.73;;
48871;SDS011;36154;51.674;7.824;2024-03-08T08:52:03;1.65;;;1.55;;
48871;SDS011;36154;51.674;7.824;2024-03-08T08:54:29;1.77;;;1.67;;
48871;SDS011;36154;51.674;7.824;2024-03-08T08:56:54;1.50;;;1.50;;
48871;SDS011;36154;51.674;7.824;2024-03-08T08:59:19;1.70;;;1.70;;
48871;SDS011;36154;51.674;7.824;2024-03-08T09:01:45;1.75;;;1.65;;
48871;SDS011;36154;51.674;7.824;2024-03-08T09:04:15;1.75;;;1.65;;
48871;SDS011;36154;51.674;7.824;2024-03-08T09:06:40;1.77;;;1.50;;
48871;SDS011;36154;51.674;7.824;2024-03-08T09:09:09;1.60;;;1.50;;
48871;SDS011;36154;51.674;7.824;2024-03-08T09:11:35;1.70;;;1.60;;
48871;SDS011;36154;51.674;7.824;2024-03-08T09:14:01;1.77;;;1.67;;
48871;SDS011;36154;51.674;7.824;2024-03-08T09:16:27;1.60;;;1.50;;
48871;SDS011;36154;51.674;7.824;2024-03-08T09:18:52;7.05;;;2.17;;
48871;SDS011;36154;51.674;7.824;2024-03-08T09:21:17;1.50;;;1.50;;
48871;SDS011;36154;51.674;7.824;2024-03-08T09:23:42;1.75;;;1.65;;
48871;SDS011;36154;51.674;7.824;2024-03-08T09:26:09;1.90;;;1.80;;
48871;SDS011;36154;51.674;7.824;2024-03-08T09:28:35;1.83;;;1.73;;
48871;SDS011;36154;51.674;7.824;2024-03-08T09:31:01;1.80;;;1.70;;
48871;SDS011;36154;51.674;7.824;2024-03-08T09:33:26;1.58;;;1.58;;
48871;SDS011;36154;51.674;7.824;2024-03-08T09:35:53;1.88;;;1.60;;
48871;SDS011;36154;51.674;7.824;2024-03-08T09:38:19;1.90;;;1.80;;
48871;SDS011;36154;51.674;7.824;2024-03-08T09:40:45;1.77;;;1.67;;
48871;SDS011;36154;51.674;7.824;2024-03-08T09:43:11;2.20;;;2.00;;
48871;SDS011;36154;51.674;7.824;2024-03-08T09:45:39;2.35;;;2.25;;
48871;SDS011;36154;51.674;7.824;2024-03-08T09:48:06;2.20;;;2.10;;
48871;SDS011;36154;51.674;7.824;2024-03-08T09:50:37;2.60;;;2.40;;
48871;SDS011;36154;51.674;7.824;2024-03-08T09:53:03;2.90;;;2.70;;
48871;SDS011;36154;51.674;7.824;2024-03-08T09:55:28;3.00;;;2.80;;
48871;SDS011;36154;51.674;7.824;2024-03-08T09:57:58;2.60;;;2.50;;
48871;SDS011;36154;51.674;7.824;2024-03-08T10:00:45;2.70;;;2.60;;
48871;SDS011;36154;51.674;7.824;2024-03-08T10:03:10;2.63;;;2.53;;
48871;SDS011;36154;51.674;7.824;2024-03-08T10:05:35;2.85;;;2.75;;
48871;SDS011;36154;51.674;7.824;2024-03-08T10:08:01;3.38;;;3.17;;
48871;SDS011;36154;51.674;7.824;2024-03-08T10:10:26;3.10;;;2.90;;
48871;SDS011;36154;51.674;7.824;2024-03-08T10:12:51;2.67;;;2.40;;
48871;SDS011;36154;51.674;7.824;2024-03-08T10:15:17;2.95;;;2.75;;
48871;SDS011;36154;51.674;7.824;2024-03-08T10:17:42;2.70;;;2.60;;
48871;SDS011;36154;51.674;7.824;2024-03-08T10:20:15;3.22;;;3.03;;
48871;SDS011;36154;51.674;7.824;2024-03-08T10:22:42;2.35;;;2.25;;
48871;SDS011;36154;51.674;7.824;2024-03-08T10:25:10;2.00;;;1.90;;
48871;SDS011;36154;51.674;7.824;2024-03-08T10:27:39;2.40;;;2.30;;
48871;SDS011;36154;51.674;7.824;2024-03-08T10:30:10;2.10;;;2.00;;
48871;SDS011;36154;51.674;7.824;2024-03-08T10:32:39;2.20;;;2.10;;
48871;SDS011;36154;51.674;7.824;2024-03-08T10:35:06;2.05;;;1.95;;
48871;SDS011;36154;51.674;7.824;2024-03-08T10:37:37;2.20;;;2.10;;
48871;SDS011;36154;51.674;7.824;2024-03-08T10:40:07;3.30;;;3.10;;
48871;SDS011;36154;51.674;7.824;2024-03-08T10:42:41;3.15;;;2.95;;
48871;SDS011;36154;51.674;7.824;2024-03-08T10:45:19;3.10;;;2.90;;
48871;SDS011;36154;51.674;7.824;2024-03-08T10:48:00;2.70;;;2.60;;
48871;SDS011;36154;51.674;7.824;2024-03-08T10:50:34;3.97;;;2.50;;
48871;SDS011;36154;51.674;7.824;2024-03-08T10:53:00;3.00;;;2.90;;
48871;SDS011;36154;51.674;7.824;2024-03-08T10:55:28;3.00;;;2.88;;
48871;SDS011;36154;51.674;7.824;2024-03-08T10:57:54;3.42;;;2.80;;
48871;SDS011;36154;51.674;7.824;2024-03-08T11:00:20;2.70;;;2.60;;
48871;SDS011;36154;51.674;7.824;2024-03-08T11:02:51;2.80;;;2.70;;
48871;SDS011;36154;51.674;7.824;2024-03-08T11:05:37;2.70;;;2.60;;
48871;SDS011;36154;51.674;7.824;2024-03-08T11:08:17;2.53;;;2.42;;
48871;SDS011;36154;51.674;7.824;2024-03-08T11:10:46;2.80;;;2.70;;
48871;SDS011;36154;51.674;7.824;2024-03-08T11:16:11;2.58;;;2.47;;
48871;SDS011;36154;51.674;7.824;2024-03-08T11:18:48;2.40;;;2.30;;
48871;SDS011;36154;51.674;7.824;2024-03-08T11:21:14;2.53;;;2.33;;
48871;SDS011;36154;51.674;7.824;2024-03-08T11:23:39;2.50;;;2.40;;
48871;SDS011;36154;51.674;7.824;2024-03-08T11:26:17;2.55;;;2.45;;
48871;SDS011;36154;51.674;7.824;2024-03-08T11:28:43;2.47;;;2.38;;
48871;SDS011;36154;51.674;7.824;2024-03-08T11:33:35;2.28;;;2.17;;
48871;SDS011;36154;51.674;7.824;2024-03-08T11:38:39;3.33;;;2.78;;
48871;SDS011;36154;51.674;7.824;2024-03-08T11:41:05;2.75;;;2.35;;
48871;SDS011;36154;51.674;7.824;2024-03-08T11:43:30;3.10;;;2.53;;
48871;SDS011;36154;51.674;7.824;2024-03-08T11:46:08;2.97;;;2.83;;
48871;SDS011;36154;51.674;7.824;2024-03-08T11:48:34;2.50;;;2.40;;
48871;SDS011;36154;51.674;7.824;2024-03-08T11:51:00;2.75;;;2.60;;
48871;SDS011;36154;51.674;7.824;2024-03-08T11:53:26;3.25;;;3.05;;
48871;SDS011;36154;51.674;7.824;2024-03-08T11:55:52;2.45;;;2.35;;
48871;SDS011;36154;51.674;7.824;2024-03-08T11:58:17;3.03;;;2.88;;
48871;SDS011;36154;51.674;7.824;2024-03-08T12:00:42;3.15;;;2.95;;
48871;SDS011;36154;51.674;7.824;2024-03-08T12:03:11;2.70;;;2.50;;
48871;SDS011;36154;51.674;7.824;2024-03-08T12:05:37;2.67;;;2.58;;
48871;SDS011;36154;51.674;7.824;2024-03-08T12:08:03;3.08;;;2.88;;
48871;SDS011;36154;51.674;7.824;2024-03-08T12:10:30;3.22;;;3.00;;
48871;SDS011;36154;51.674;7.824;2024-03-08T12:12:56;2.90;;;2.80;;
48871;SDS011;36154;51.674;7.824;2024-03-08T12:15:24;2.90;;;2.70;;
48871;SDS011;36154;51.674;7.824;2024-03-08T12:17:50;2.95;;;2.65;;
48871;SDS011;36154;51.674;7.824;2024-03-08T12:20:18;2.70;;;2.60;;
48871;SDS011;36154;51.674;7.824;2024-03-08T12:22:46;2.78;;;2.67;;
48871;SDS011;36154;51.674;7.824;2024-03-08T12:25:12;2.95;;;2.85;;
48871;SDS011;36154;51.674;7.824;2024-03-08T12:27:39;3.05;;;2.85;;
48871;SDS011;36154;51.674;7.824;2024-03-08T12:32:52;3.15;;;2.95;;
48871;SDS011;36154;51.674;7.824;2024-03-08T12:35:21;2.78;;;2.58;;
48871;SDS011;36154;51.674;7.824;2024-03-08T12:37:57;3.00;;;2.85;;
48871;SDS011;36154;51.674;7.824;2024-03-08T12:40:28;3.25;;;3.05;;
48871;SDS011;36154;51.674;7.824;2024-03-08T12:42:58;3.38;;;3.17;;
48871;SDS011;36154;51.674;7.824;2024-03-08T12:45:23;3.38;;;3.17;;
48871;SDS011;36154;51.674;7.824;2024-03-08T12:47:53;3.10;;;2.97;;
48871;SDS011;36154;51.674;7.824;2024-03-08T12:50:20;3.22;;;3.03;;
48871;SDS011;36154;51.674;7.824;2024-03-08T12:52:46;3.22;;;3.03;;
48871;SDS011;36154;51.674;7.824;2024-03-08T12:55:12;2.80;;;2.60;;
48871;SDS011;36154;51.674;7.824;2024-03-08T12:57:37;3.33;;;3.08;;
48871;SDS011;36154;51.674;7.824;2024-03-08T13:00:03;3.30;;;3.10;;
48871;SDS011;36154;51.674;7.824;2024-03-08T13:02:30;3.63;;;3.33;;
48871;SDS011;36154;51.674;7.824;2024-03-08T13:04:57;3.55;;;3.35;;
48871;SDS011;36154;51.674;7.824;2024-03-08T13:07:25;3.22;;;3.03;;
48871;SDS011;36154;51.674;7.824;2024-03-08T13:09:51;3.15;;;2.95;;
48871;SDS011;36154;51.674;7.824;2024-03-08T13:12:18;3.72;;;3.35;;
48871;SDS011;36154;51.674;7.824;2024-03-08T13:14:45;3.55;;;3.28;;
48871;SDS011;36154;51.674;7.824;2024-03-08T13:17:10;3.75;;;3.55;;
48871;SDS011;36154;51.674;7.824;2024-03-08T13:19:36;3.67;;;3.47;;
48871;SDS011;36154;51.674;7.824;2024-03-08T13:22:03;3.83;;;3.63;;
48871;SDS011;36154;51.674;7.824;2024-03-08T13:24:32;3.50;;;3.30;;
48871;SDS011;36154;51.674;7.824;2024-03-08T13:26:58;3.22;;;3.05;;
48871;SDS011;36154;51.674;7.824;2024-03-08T13:29:24;3.90;;;3.65;;
48871;SDS011;36154;51.674;7.824;2024-03-08T13:31:50;5.82;;;3.78;;
48871;SDS011;36154;51.674;7.824;2024-03-08T13:34:19;3.88;;;3.10;;
48871;SDS011;36154;51.674;7.824;2024-03-08T13:36:53;6.80;;;3.88;;
48871;SDS011;36154;51.674;7.824;2024-03-08T13:39:24;22.55;;;6.22;;
48871;SDS011;36154;51.674;7.824;2024-03-08T13:41:50;19.77;;;6.68;;
48871;SDS011;36154;51.674;7.824;2024-03-08T13:44:16;27.35;;;6.70;;
48871;SDS011;36154;51.674;7.824;2024-03-08T13:46:42;26.52;;;7.35;;
48871;SDS011;36154;51.674;7.824;2024-03-08T13:49:07;23.58;;;7.55;;
48871;SDS011;36154;51.674;7.824;2024-03-08T13:51:35;16.95;;;6.13;;
48871;SDS011;36154;51.674;7.824;2024-03-08T13:54:00;16.40;;;5.95;;
48871;SDS011;36154;51.674;7.824;2024-03-08T13:56:26;12.68;;;5.65;;
48871;SDS011;36154;51.674;7.824;2024-03-08T13:58:52;11.45;;;5.68;;
48871;SDS011;36154;51.674;7.824;2024-03-08T14:01:20;12.95;;;5.47;;
48871;SDS011;36154;51.674;7.824;2024-03-08T14:03:46;15.77;;;5.40;;
48871;SDS011;36154;51.674;7.824;2024-03-08T14:06:11;13.52;;;5.13;;
48871;SDS011;36154;51.674;7.824;2024-03-08T14:08:37;10.25;;;5.25;;
48871;SDS011;36154;51.674;7.824;2024-03-08T14:11:03;9.35;;;5.63;;
48871;SDS011;36154;51.674;7.824;2024-03-08T14:13:36;9.70;;;5.18;;
48871;SDS011;36154;51.674;7.824;2024-03-08T14:16:05;8.50;;;5.78;;
48871;SDS011;36154;51.674;7.824;2024-03-08T14:18:34;7.63;;;4.97;;
48871;SDS011;36154;51.674;7.824;2024-03-08T14:20:59;11.30;;;5.50;;
48871;SDS011;36154;51.674;7.824;2024-03-08T14:23:24;8.87;;;4.80;;
48871;SDS011;36154;51.674;7.824;2024-03-08T14:25:50;8.45;;;4.75;;
48871;SDS011;36154;51.674;7.824;2024-03-08T14:28:17;9.68;;;4.90;;
48871;SDS011;36154;51.674;7.824;2024-03-08T14:30:44;7.53;;;4.78;;
48871;SDS011;36154;51.674;7.824;2024-03-08T14:33:09;8.00;;;5.20;;
48871;SDS011;36154;51.674;7.824;2024-03-08T14:35:38;5.88;;;4.85;;
48871;SDS011;36154;51.674;7.824;2024-03-08T14:38:03;5.63;;;4.45;;
48871;SDS011;36154;51.674;7.824;2024-03-08T14:40:29;6.88;;;4.68;;
48871;SDS011;36154;51.674;7.824;2024-03-08T14:42:55;6.63;;;4.43;;
48871;SDS011;36154;51.674;7.824;2024-03-08T14:45:21;7.18;;;5.43;;
48871;SDS011;36154;51.674;7.824;2024-03-08T14:47:49;5.65;;;4.65;;
48871;SDS011;36154;51.674;7.824;2024-03-08T14:50:16;6.25;;;4.80;;
48871;SDS011;36154;51.674;7.824;2024-03-08T14:52:42;6.43;;;4.43;;
48871;SDS011;36154;51.674;7.824;2024-03-08T14:55:08;5.43;;;4.75;;